createdAt,value
2023-03-01T00:00:36.356Z,20.75
2023-03-01T00:01:59.782Z,23.20
2023-03-01T00:03:22.274Z,22.35
2023-03-01T00:04:45.867Z,21.88
2023-03-01T00:06:09.451Z,17.58
2023-03-01T00:07:32.857Z,18.20
2023-03-01T00:08:55.327Z,17.55
2023-03-01T00:10:20.582Z,15.98
2023-03-01T00:11:45.250Z,22.98
2023-03-01T00:13:07.626Z,19.73
2023-03-01T00:14:30.986Z,17.23
2023-03-01T00:15:53.362Z,14.95
2023-03-01T00:17:17.654Z,18.75
2023-03-01T00:18:40.465Z,18.23
2023-03-01T00:20:03.864Z,18.90
2023-03-01T00:21:28.198Z,23.17
2023-03-01T00:22:51.704Z,19.63
2023-03-01T00:24:15.094Z,23.73
2023-03-01T00:25:44.108Z,23.95
2023-03-01T00:27:08.049Z,18.80
2023-03-01T00:28:31.506Z,22.35
2023-03-01T00:29:55.097Z,24.63
2023-03-01T00:31:18.761Z,14.85
2023-03-01T00:32:42.327Z,17.58
2023-03-01T00:34:07.556Z,20.15
2023-03-01T00:35:31.043Z,17.52
2023-03-01T00:36:54.457Z,14.95
2023-03-01T00:38:16.847Z,22.10
2023-03-01T00:39:40.198Z,22.73
2023-03-01T00:41:06.702Z,22.92
2023-03-01T00:42:30.090Z,16.83
2023-03-01T00:43:52.510Z,25.27
2023-03-01T00:45:16.104Z,17.85
2023-03-01T00:46:39.644Z,22.83
2023-03-01T00:48:03.123Z,16.55
2023-03-01T00:49:28.591Z,19.98
2023-03-01T00:50:51.122Z,13.45
2023-03-01T00:52:14.492Z,20.63
2023-03-01T00:53:38.224Z,23.30
2023-03-01T00:55:01.610Z,24.73
2023-03-01T00:56:26.638Z,17.95
2023-03-01T00:57:50.054Z,21.85
2023-03-01T00:59:12.492Z,20.40
2023-03-01T01:00:35.952Z,20.35
2023-03-01T01:02:00.131Z,19.48
2023-03-01T01:03:22.788Z,16.33
2023-03-01T01:04:46.182Z,16.25
2023-03-01T01:06:15.374Z,20.60
2023-03-01T01:07:39.965Z,19.05
2023-03-01T01:09:03.748Z,17.48
2023-03-01T01:10:27.081Z,17.20
2023-03-01T01:11:53.342Z,18.33
2023-03-01T01:13:16.676Z,17.75
2023-03-01T01:14:40.239Z,16.88
2023-03-01T01:16:02.960Z,33.57
2023-03-01T01:17:26.433Z,23.60
2023-03-01T01:18:49.661Z,16.38
2023-03-01T01:20:13.849Z,18.55
2023-03-01T01:21:37.206Z,15.18
2023-03-01T01:22:59.624Z,18.52
2023-03-01T01:24:23.115Z,19.23
2023-03-01T01:25:45.521Z,17.98
2023-03-01T01:27:10.239Z,15.02
2023-03-01T01:28:32.997Z,21.33
2023-03-01T01:29:56.386Z,17.23
2023-03-01T01:31:20.247Z,18.85
2023-03-01T01:32:42.661Z,22.00
2023-03-01T01:34:08.223Z,19.23
2023-03-01T01:35:30.963Z,17.65
2023-03-01T01:36:55.548Z,20.63
2023-03-01T01:38:18.013Z,15.23
2023-03-01T01:39:41.400Z,21.02
2023-03-01T01:41:06.894Z,16.02
2023-03-01T01:42:31.866Z,18.92
2023-03-01T01:44:18.566Z,19.08
2023-03-01T01:45:41.878Z,21.63
2023-03-01T01:47:07.549Z,18.20
2023-03-01T01:48:41.365Z,19.00
2023-03-01T01:50:05.150Z,19.70
2023-03-01T01:51:39.004Z,18.58
2023-03-01T01:53:02.602Z,23.50
2023-03-01T01:54:28.392Z,20.38
2023-03-01T01:55:57.913Z,12.30
2023-03-01T01:57:26.043Z,25.00
2023-03-01T01:58:51.244Z,19.92
2023-03-01T02:00:16.285Z,19.48
2023-03-01T02:01:39.678Z,18.75
2023-03-01T02:03:04.628Z,22.00
2023-03-01T02:04:28.083Z,20.50
2023-03-01T02:05:55.913Z,20.40
2023-03-01T02:07:21.582Z,19.92
2023-03-01T02:08:44.079Z,15.35
2023-03-01T02:10:08.114Z,18.40
2023-03-01T02:11:32.358Z,20.58
2023-03-01T02:12:57.013Z,17.58
2023-03-01T02:14:21.887Z,15.27
2023-03-01T02:15:45.820Z,21.60
2023-03-01T02:17:09.234Z,20.00
2023-03-01T02:18:31.665Z,17.17
2023-03-01T02:20:07.928Z,23.98
2023-03-01T02:21:41.196Z,18.10
2023-03-01T02:23:04.593Z,18.55
2023-03-01T02:24:32.789Z,16.42
2023-03-01T02:26:00.198Z,19.33
2023-03-01T02:27:27.835Z,15.43
2023-03-01T02:28:52.248Z,12.70
2023-03-01T02:30:15.696Z,17.90
2023-03-01T02:31:44.274Z,22.15
2023-03-01T02:33:06.887Z,15.45
2023-03-01T02:34:31.129Z,16.58
2023-03-01T02:35:54.709Z,16.88
2023-03-01T02:37:21.487Z,20.42
2023-03-01T02:38:44.144Z,16.98
2023-03-01T02:40:12.573Z,17.05
2023-03-01T02:41:37.295Z,18.38
2023-03-01T02:43:01.533Z,21.13
2023-03-01T02:44:25.453Z,17.10
2023-03-01T02:45:51.650Z,23.27
2023-03-01T02:47:15.025Z,18.65
2023-03-01T02:48:45.841Z,19.77
2023-03-01T02:50:25.919Z,17.83
2023-03-01T02:51:58.524Z,22.13
2023-03-01T02:53:25.787Z,15.00
2023-03-01T02:54:51.244Z,18.55
2023-03-01T02:56:16.455Z,16.63
2023-03-01T02:57:41.705Z,19.03
2023-03-01T02:59:04.447Z,14.70
2023-03-01T03:00:33.811Z,21.20
2023-03-01T03:01:56.251Z,20.83
2023-03-01T03:03:21.378Z,17.03
2023-03-01T03:04:43.778Z,20.30
2023-03-01T03:06:07.334Z,20.80
2023-03-01T03:07:31.018Z,24.47
2023-03-01T03:08:54.408Z,21.47
2023-03-01T03:10:21.134Z,23.30
2023-03-01T03:11:43.923Z,14.00
2023-03-01T03:13:09.052Z,19.02
2023-03-01T03:14:35.798Z,15.53
2023-03-01T03:16:00.893Z,22.40
2023-03-01T03:17:23.302Z,20.80
2023-03-01T03:18:46.931Z,19.45
2023-03-01T03:20:13.930Z,20.87
2023-03-01T03:21:37.441Z,17.70
2023-03-01T03:23:01.223Z,21.27
2023-03-01T03:24:26.209Z,20.58
2023-03-01T03:25:50.224Z,22.98
2023-03-01T03:27:13.795Z,15.60
2023-03-01T03:28:36.563Z,18.13
2023-03-01T03:30:00.195Z,18.50
2023-03-01T03:31:25.052Z,18.35
2023-03-01T03:32:53.219Z,19.50
2023-03-01T03:34:19.002Z,15.83
2023-03-01T03:35:45.081Z,17.92
2023-03-01T03:37:27.524Z,15.77
2023-03-01T03:38:51.073Z,14.07
2023-03-01T03:40:16.328Z,15.93
2023-03-01T03:41:39.924Z,19.67
2023-03-01T03:43:02.526Z,13.80
2023-03-01T03:44:25.934Z,14.47
2023-03-01T03:45:49.467Z,18.53
2023-03-01T03:47:14.253Z,17.27
2023-03-01T03:48:38.973Z,19.20
2023-03-01T03:50:01.360Z,17.48
2023-03-01T03:51:24.743Z,20.98
2023-03-01T03:52:47.255Z,14.87
2023-03-01T03:54:11.767Z,17.70
2023-03-01T03:55:34.859Z,15.93
2023-03-01T03:56:58.301Z,26.03
2023-03-01T03:58:23.674Z,16.10
2023-03-01T03:59:47.049Z,21.65
2023-03-01T04:01:11.008Z,15.00
2023-03-01T04:02:34.792Z,16.13
2023-03-01T04:04:03.541Z,20.80
2023-03-01T04:05:25.974Z,18.43
2023-03-01T04:06:49.561Z,18.43
2023-03-01T04:08:12.311Z,18.90
2023-03-01T04:09:36.073Z,18.70
2023-03-01T04:11:01.021Z,22.63
2023-03-01T04:12:24.009Z,17.97
2023-03-01T04:13:47.392Z,17.73
2023-03-01T04:15:14.179Z,17.07
2023-03-01T04:16:37.644Z,20.20
2023-03-01T04:18:01.884Z,21.55
2023-03-01T04:19:25.465Z,19.33
2023-03-01T04:20:49.147Z,17.87
2023-03-01T04:22:18.283Z,17.67
2023-03-01T04:23:42.263Z,17.30
2023-03-01T04:25:07.010Z,15.47
2023-03-01T04:26:31.543Z,18.23
2023-03-01T04:27:54.093Z,15.87
2023-03-01T04:29:17.476Z,19.83
2023-03-01T04:30:40.279Z,29.27
2023-03-01T04:32:05.585Z,15.93
2023-03-01T04:33:30.376Z,22.17
2023-03-01T04:34:52.795Z,16.10
2023-03-01T04:36:18.602Z,14.37
2023-03-01T04:37:43.441Z,25.03
2023-03-01T04:39:13.062Z,18.00
2023-03-01T04:40:37.350Z,19.27
2023-03-01T04:42:00.768Z,13.90
2023-03-01T04:43:24.211Z,19.27
2023-03-01T04:44:48.000Z,20.40
2023-03-01T04:46:15.646Z,17.07
2023-03-01T04:47:39.208Z,16.03
2023-03-01T04:49:04.375Z,19.27
2023-03-01T04:50:27.761Z,21.17
2023-03-01T04:51:51.209Z,18.93
2023-03-01T04:53:13.569Z,17.60
2023-03-01T04:54:37.785Z,16.23
2023-03-01T04:56:00.630Z,15.60
2023-03-01T04:57:24.057Z,16.00
2023-03-01T04:58:47.864Z,16.93
2023-03-01T05:00:21.839Z,21.17
2023-03-01T05:01:45.217Z,18.60
2023-03-01T05:03:09.456Z,18.80
2023-03-01T05:04:34.212Z,22.53
2023-03-01T05:06:03.283Z,17.90
2023-03-01T05:07:27.225Z,18.90
2023-03-01T05:08:50.717Z,16.33
2023-03-01T05:10:13.143Z,17.10
2023-03-01T05:11:38.432Z,17.93
2023-03-01T05:13:01.728Z,19.63
2023-03-01T05:14:25.086Z,22.53
2023-03-01T05:15:48.794Z,19.10
2023-03-01T05:17:12.017Z,18.83
2023-03-01T05:18:36.013Z,15.60
2023-03-01T05:20:00.610Z,21.63
2023-03-01T05:21:24.006Z,22.10
2023-03-01T05:22:47.182Z,16.87
2023-03-01T05:24:12.652Z,14.97
2023-03-01T05:25:41.027Z,17.97
2023-03-01T05:27:03.858Z,19.13
2023-03-01T05:28:28.208Z,22.27
2023-03-01T05:29:50.640Z,16.53
2023-03-01T05:31:14.382Z,15.93
2023-03-01T05:32:36.870Z,20.73
2023-03-01T05:34:01.105Z,18.60
2023-03-01T05:35:26.114Z,16.50
2023-03-01T05:36:49.474Z,15.67
2023-03-01T05:38:14.090Z,19.40
2023-03-01T05:39:38.851Z,22.20
2023-03-01T05:41:02.449Z,20.17
2023-03-01T05:42:24.835Z,18.83
2023-03-01T05:43:48.191Z,18.10
2023-03-01T05:45:11.324Z,19.97
2023-03-01T05:46:34.704Z,11.80
2023-03-01T05:47:58.062Z,19.47
2023-03-01T05:49:20.696Z,20.03
2023-03-01T05:50:48.083Z,16.37
2023-03-01T05:52:11.451Z,19.47
2023-03-01T05:53:34.819Z,16.60
2023-03-01T05:54:58.191Z,16.73
2023-03-01T05:56:23.290Z,23.10
2023-03-01T05:57:46.836Z,19.83
2023-03-01T05:59:09.250Z,18.37
2023-03-01T06:00:33.142Z,22.40
2023-03-01T06:01:55.588Z,20.93
2023-03-01T06:03:20.017Z,21.07
2023-03-01T06:04:42.628Z,19.80
2023-03-01T06:06:07.797Z,18.27
2023-03-01T06:07:31.339Z,24.00
2023-03-01T06:08:54.340Z,24.60
2023-03-01T06:10:18.202Z,22.67
2023-03-01T06:11:41.679Z,26.40
2023-03-01T06:13:06.777Z,18.60
2023-03-01T06:14:30.171Z,18.50
2023-03-01T06:15:53.829Z,19.57
2023-03-01T06:17:17.289Z,16.77
2023-03-01T06:18:40.842Z,24.87
2023-03-01T06:20:04.512Z,25.23
2023-03-01T06:21:29.253Z,23.23
2023-03-01T06:22:52.741Z,17.13
2023-03-01T06:24:18.323Z,30.90
2023-03-01T06:25:40.738Z,23.10
2023-03-01T06:27:04.129Z,24.70
2023-03-01T06:28:27.603Z,21.80
2023-03-01T06:29:51.810Z,25.60
2023-03-01T06:31:15.216Z,21.70
2023-03-01T06:32:38.702Z,19.10
2023-03-01T06:34:02.241Z,25.90
2023-03-01T06:35:30.723Z,18.80
2023-03-01T06:36:55.597Z,16.67
2023-03-01T06:38:20.005Z,24.65
2023-03-01T06:39:43.404Z,16.70
2023-03-01T06:41:07.762Z,24.23
2023-03-01T06:42:30.141Z,20.95
2023-03-01T06:43:55.372Z,20.33
2023-03-01T06:45:20.045Z,16.08
2023-03-01T06:46:44.550Z,18.85
2023-03-01T06:48:08.914Z,19.58
2023-03-01T06:49:32.368Z,20.23
2023-03-01T06:50:56.147Z,20.50
2023-03-01T06:52:21.809Z,18.90
2023-03-01T06:53:48.496Z,20.88
2023-03-01T06:55:12.132Z,23.02
2023-03-01T06:56:35.759Z,22.67
2023-03-01T06:57:59.505Z,19.15
2023-03-01T06:59:23.273Z,20.42
2023-03-01T07:00:46.652Z,19.65
2023-03-01T07:02:12.604Z,25.17
2023-03-01T07:03:35.992Z,17.65
2023-03-01T07:04:59.379Z,25.55
2023-03-01T07:06:22.911Z,18.45
2023-03-01T07:07:53.338Z,22.23
2023-03-01T07:09:20.741Z,20.50
2023-03-01T07:10:44.210Z,21.90
2023-03-01T07:12:08.857Z,15.95
2023-03-01T07:13:32.255Z,17.60
2023-03-01T07:14:55.718Z,17.90
2023-03-01T07:16:19.099Z,18.88
2023-03-01T07:17:42.528Z,17.20
2023-03-01T07:19:06.343Z,17.02
2023-03-01T07:20:31.346Z,16.83
2023-03-01T07:21:54.941Z,18.77
2023-03-01T07:23:19.668Z,18.27
2023-03-01T07:24:43.743Z,19.50
2023-03-01T07:26:13.279Z,15.90
2023-03-01T07:27:36.772Z,20.38
2023-03-01T07:29:01.738Z,18.80
2023-03-01T07:30:26.855Z,20.45
2023-03-01T07:31:51.439Z,15.90
2023-03-01T07:33:14.886Z,15.18
2023-03-01T07:34:38.354Z,15.55
2023-03-01T07:36:03.186Z,18.63
2023-03-01T07:37:26.650Z,18.95
2023-03-01T07:38:51.419Z,15.35
2023-03-01T07:40:15.554Z,14.68
2023-03-01T07:41:39.074Z,16.00
2023-03-01T07:43:03.115Z,18.25
2023-03-01T07:44:26.583Z,14.98
2023-03-01T07:45:50.009Z,15.80
2023-03-01T07:47:13.364Z,19.65
2023-03-01T07:48:37.007Z,15.60
2023-03-01T07:50:02.034Z,13.70
2023-03-01T07:51:25.458Z,15.98
2023-03-01T07:52:49.370Z,16.10
2023-03-01T07:54:15.040Z,19.33
2023-03-01T07:55:38.527Z,16.42
2023-03-01T07:57:01.969Z,17.55
2023-03-01T07:58:25.348Z,14.55
2023-03-01T07:59:48.734Z,14.27
2023-03-01T08:01:15.204Z,13.75
2023-03-01T08:02:38.608Z,15.80
2023-03-01T08:04:02.712Z,13.65
2023-03-01T08:05:26.171Z,13.57
2023-03-01T08:06:49.550Z,14.02
2023-03-01T08:08:12.936Z,19.42
2023-03-01T08:09:38.790Z,21.65
2023-03-01T08:11:03.232Z,12.15
2023-03-01T08:12:28.565Z,17.50
2023-03-01T08:13:53.331Z,12.75
2023-03-01T08:15:18.077Z,13.98
2023-03-01T08:16:41.512Z,15.75
2023-03-01T08:18:04.910Z,9.30
2023-03-01T08:19:29.100Z,13.85
2023-03-01T08:20:52.515Z,11.15
2023-03-01T08:22:15.924Z,10.18
2023-03-01T08:23:39.444Z,11.80
2023-03-01T08:25:04.461Z,11.70
2023-03-01T08:26:27.888Z,10.98
2023-03-01T08:27:53.466Z,10.18
2023-03-01T08:29:16.889Z,16.17
2023-03-01T08:30:40.274Z,8.77
2023-03-01T08:32:03.800Z,11.27
2023-03-01T08:33:28.049Z,10.18
2023-03-01T08:34:51.468Z,11.13
2023-03-01T08:36:14.844Z,10.40
2023-03-01T08:37:38.221Z,11.63
2023-03-01T08:39:02.247Z,7.72
2023-03-01T08:40:26.979Z,8.80
2023-03-01T08:41:50.352Z,8.80
2023-03-01T08:43:13.730Z,8.35
2023-03-01T08:44:37.287Z,8.75
2023-03-01T08:46:00.781Z,7.65
2023-03-01T08:47:24.284Z,7.35
2023-03-01T08:48:47.685Z,7.43
2023-03-01T08:50:12.062Z,8.48
2023-03-01T08:51:37.771Z,10.82
2023-03-01T08:53:01.169Z,12.77
2023-03-01T08:54:24.737Z,13.63
2023-03-01T08:55:50.777Z,6.35
2023-03-01T08:57:14.248Z,6.80
2023-03-01T08:58:38.032Z,12.18
2023-03-01T09:00:01.805Z,10.15
2023-03-01T09:01:26.012Z,13.30
2023-03-01T09:02:49.383Z,10.88
2023-03-01T09:04:13.233Z,7.57
2023-03-01T09:05:37.740Z,6.32
2023-03-01T09:07:01.294Z,5.97
2023-03-01T09:08:24.741Z,7.30
2023-03-01T09:09:48.426Z,7.13
2023-03-01T09:11:14.928Z,9.45
2023-03-01T09:12:38.280Z,6.10
2023-03-01T09:14:01.791Z,7.90
2023-03-01T09:15:25.160Z,7.88
2023-03-01T09:16:48.595Z,6.95
2023-03-01T09:18:12.005Z,8.02
2023-03-01T09:19:35.428Z,8.75
2023-03-01T09:21:08.316Z,9.70
2023-03-01T09:22:31.670Z,10.85
2023-03-01T09:23:55.064Z,13.63
2023-03-01T09:25:18.567Z,9.20
2023-03-01T09:26:43.599Z,8.40
2023-03-01T09:28:07.314Z,11.35
2023-03-01T09:29:31.318Z,6.30
2023-03-01T09:30:54.795Z,5.55
2023-03-01T09:32:18.351Z,6.70
2023-03-01T09:33:41.701Z,7.03
2023-03-01T09:35:10.872Z,5.40
2023-03-01T09:36:34.867Z,16.95
2023-03-01T09:37:58.297Z,5.95
2023-03-01T09:39:22.348Z,5.38
2023-03-01T09:40:49.636Z,5.32
2023-03-01T09:42:17.023Z,9.20
2023-03-01T09:43:46.031Z,6.47
2023-03-01T09:45:12.871Z,7.05
2023-03-01T09:46:42.058Z,8.43
2023-03-01T09:48:07.164Z,13.55
2023-03-01T09:49:32.213Z,7.57
2023-03-01T09:50:55.819Z,9.48
2023-03-01T09:52:26.440Z,6.47
2023-03-01T09:53:49.818Z,11.63
2023-03-01T09:55:15.628Z,8.52
2023-03-01T09:56:42.391Z,7.30
2023-03-01T09:58:27.716Z,7.28
2023-03-01T10:00:06.228Z,5.13
2023-03-01T10:01:35.611Z,12.20
2023-03-01T10:03:03.487Z,7.13
2023-03-01T10:04:34.925Z,5.03
2023-03-01T10:06:03.459Z,13.70
2023-03-01T10:07:34.974Z,5.65
2023-03-01T10:08:59.932Z,12.60
2023-03-01T10:10:31.214Z,7.68
2023-03-01T10:11:56.794Z,10.05
2023-03-01T10:13:26.115Z,18.13
2023-03-01T10:14:56.481Z,7.47
2023-03-01T10:16:24.048Z,13.00
2023-03-01T10:17:50.815Z,11.77
2023-03-01T10:19:16.634Z,7.80
2023-03-01T10:20:47.585Z,5.05
2023-03-01T10:22:17.547Z,5.75
2023-03-01T10:23:40.976Z,8.68
2023-03-01T10:25:06.371Z,6.43
2023-03-01T10:26:45.178Z,5.15
2023-03-01T10:28:16.146Z,6.97
2023-03-01T10:29:46.093Z,8.00
2023-03-01T10:31:14.822Z,8.38
2023-03-01T10:32:38.266Z,5.40
2023-03-01T10:34:02.528Z,5.60
2023-03-01T10:35:28.304Z,10.02
2023-03-01T10:36:53.483Z,8.52
2023-03-01T10:38:18.509Z,7.50
2023-03-01T10:39:59.144Z,8.60
2023-03-01T10:41:24.335Z,5.97
2023-03-01T10:42:50.331Z,13.90
2023-03-01T10:44:45.123Z,8.15
2023-03-01T10:46:27.949Z,5.95
2023-03-01T10:48:06.844Z,8.23
2023-03-01T10:49:30.245Z,7.07
2023-03-01T10:51:06.572Z,10.40
2023-03-01T10:52:33.228Z,10.95
2023-03-01T10:53:56.617Z,9.45
2023-03-01T10:55:29.110Z,10.65
2023-03-01T10:56:54.843Z,8.35
2023-03-01T10:58:21.395Z,11.70
2023-03-01T10:59:46.129Z,15.82
2023-03-01T11:01:27.804Z,17.75
2023-03-01T11:02:53.430Z,9.23
2023-03-01T11:04:17.759Z,10.05
2023-03-01T11:05:53.753Z,9.18
2023-03-01T11:07:17.111Z,7.97
2023-03-01T11:08:43.283Z,8.75
2023-03-01T11:10:16.972Z,8.05
2023-03-01T11:11:40.514Z,8.20
2023-03-01T11:13:15.364Z,11.50
2023-03-01T11:14:41.730Z,9.52
2023-03-01T11:16:10.720Z,14.27
2023-03-01T11:17:48.049Z,7.50
2023-03-01T11:19:19.496Z,9.25
2023-03-01T11:20:43.038Z,9.32
2023-03-01T11:22:09.992Z,7.45
2023-03-01T11:23:33.717Z,9.40
2023-03-01T11:25:09.289Z,9.55
2023-03-01T11:26:34.151Z,11.80
2023-03-01T11:27:58.450Z,8.18
2023-03-01T11:29:37.326Z,9.15
2023-03-01T11:31:09.820Z,15.68
2023-03-01T11:32:36.850Z,9.50
2023-03-01T11:34:05.452Z,6.40
2023-03-01T11:35:30.823Z,7.88
2023-03-01T11:36:56.285Z,8.15
2023-03-01T11:38:23.627Z,9.98
2023-03-01T11:39:54.661Z,9.30
2023-03-01T11:41:20.467Z,10.93
2023-03-01T11:43:01.502Z,6.00
2023-03-01T11:44:27.773Z,7.50
2023-03-01T11:46:04.876Z,9.27
2023-03-01T11:47:45.368Z,6.93
2023-03-01T11:49:35.647Z,7.50
2023-03-01T11:51:00.824Z,9.77
2023-03-01T11:52:36.956Z,8.45
2023-03-01T11:54:09.855Z,20.65
2023-03-01T11:55:50.632Z,11.98
2023-03-01T11:57:19.636Z,9.27
2023-03-01T11:59:10.610Z,10.93
2023-03-01T12:00:46.688Z,9.77
2023-03-01T12:02:21.645Z,7.45
2023-03-01T12:04:39.100Z,5.63
2023-03-01T12:06:38.455Z,4.78
2023-03-01T12:08:09.110Z,10.27
2023-03-01T12:09:49.022Z,5.82
2023-03-01T12:11:22.330Z,3.20
2023-03-01T12:12:55.207Z,6.63
2023-03-01T12:14:32.720Z,4.15
2023-03-01T12:16:14.707Z,9.43
2023-03-01T12:18:00.431Z,4.45
2023-03-01T12:19:42.117Z,3.90
2023-03-01T12:21:15.723Z,4.57
2023-03-01T12:22:51.168Z,5.13
2023-03-01T12:24:40.818Z,9.27
2023-03-01T12:26:11.015Z,8.35
2023-03-01T12:27:56.811Z,3.90
2023-03-01T12:29:28.266Z,4.57
2023-03-01T12:31:16.904Z,9.52
2023-03-01T12:32:49.455Z,3.47
2023-03-01T12:34:27.260Z,4.10
2023-03-01T12:36:34.190Z,4.47
2023-03-01T12:38:01.605Z,6.53
2023-03-01T12:39:41.456Z,4.80
2023-03-01T12:41:27.706Z,4.32
2023-03-01T12:42:58.585Z,5.40
2023-03-01T12:44:37.962Z,5.55
2023-03-01T12:46:13.146Z,9.10
2023-03-01T12:47:56.432Z,6.00
2023-03-01T12:49:23.140Z,12.95
2023-03-01T12:50:48.493Z,8.77
2023-03-01T12:52:18.896Z,5.70
2023-03-01T12:53:43.910Z,6.93
2023-03-01T12:55:17.956Z,10.20
2023-03-01T12:56:41.890Z,4.63
2023-03-01T12:58:17.528Z,5.05
2023-03-01T12:59:43.295Z,6.13
2023-03-01T13:01:16.265Z,6.20
2023-03-01T13:02:44.441Z,8.68
2023-03-01T13:04:24.700Z,5.45
2023-03-01T13:06:04.496Z,6.78
2023-03-01T13:07:31.765Z,6.40
2023-03-01T13:09:01.811Z,5.25
2023-03-01T13:10:32.725Z,3.53
2023-03-01T13:11:56.267Z,5.05
2023-03-01T13:13:23.929Z,6.18
2023-03-01T13:14:48.634Z,4.47
2023-03-01T13:16:46.027Z,5.72
2023-03-01T13:18:31.216Z,2.70
2023-03-01T13:20:01.294Z,4.47
2023-03-01T13:21:34.345Z,8.00
2023-03-01T13:23:07.248Z,4.85
2023-03-01T13:24:35.067Z,9.30
2023-03-01T13:26:14.517Z,3.47
2023-03-01T13:27:37.934Z,4.78
2023-03-01T13:29:02.205Z,6.05
2023-03-01T13:30:43.110Z,5.05
2023-03-01T13:32:06.910Z,5.03
2023-03-01T13:33:44.616Z,6.18
2023-03-01T13:35:43.803Z,6.43
2023-03-01T13:37:22.585Z,6.28
2023-03-01T13:38:58.225Z,5.32
2023-03-01T13:41:01.228Z,3.75
2023-03-01T13:42:53.681Z,12.23
2023-03-01T13:44:27.211Z,4.95
2023-03-01T13:45:50.766Z,4.10
2023-03-01T13:47:19.014Z,7.45
2023-03-01T13:48:42.751Z,9.55
2023-03-01T13:50:07.273Z,11.43
2023-03-01T13:51:30.964Z,5.25
2023-03-01T13:52:58.695Z,4.63
2023-03-01T13:54:28.949Z,3.63
2023-03-01T13:55:55.549Z,6.78
2023-03-01T13:57:26.079Z,4.13
2023-03-01T13:58:54.783Z,3.30
2023-03-01T14:00:35.253Z,5.55
2023-03-01T14:02:00.504Z,13.07
2023-03-01T14:03:24.129Z,8.20
2023-03-01T14:05:02.006Z,3.72
2023-03-01T14:06:26.794Z,5.55
2023-03-01T14:07:53.966Z,5.40
2023-03-01T14:09:19.847Z,5.18
2023-03-01T14:10:50.343Z,3.15
2023-03-01T14:12:29.859Z,4.82
2023-03-01T14:14:24.174Z,6.50
2023-03-01T14:15:56.128Z,6.70
2023-03-01T14:17:40.801Z,3.67
2023-03-01T14:19:31.073Z,3.63
2023-03-01T14:20:55.867Z,4.88
2023-03-01T14:22:23.160Z,5.47
2023-03-01T14:23:47.768Z,4.82
2023-03-01T14:25:23.223Z,5.00
2023-03-01T14:26:48.374Z,4.78
2023-03-01T14:28:18.771Z,7.78
2023-03-01T14:29:42.553Z,6.75
2023-03-01T14:31:27.016Z,8.02
2023-03-01T14:32:56.422Z,7.10
2023-03-01T14:34:22.862Z,3.53
2023-03-01T14:35:55.464Z,5.85
2023-03-01T14:37:24.646Z,3.30
2023-03-01T14:38:51.025Z,5.13
2023-03-01T14:40:24.963Z,3.85
2023-03-01T14:41:50.288Z,3.58
2023-03-01T14:43:16.927Z,2.08
2023-03-01T14:44:41.334Z,3.92
2023-03-01T14:46:05.079Z,4.35
2023-03-01T14:47:31.929Z,3.30
2023-03-01T14:48:56.845Z,4.28
2023-03-01T14:50:27.954Z,11.45
2023-03-01T14:51:55.503Z,4.05
2023-03-01T14:53:22.856Z,5.07
2023-03-01T14:54:48.781Z,3.13
2023-03-01T14:56:18.417Z,4.13
2023-03-01T14:57:46.175Z,7.13
2023-03-01T14:59:12.076Z,5.85
2023-03-01T15:00:36.227Z,3.75
2023-03-01T15:02:04.418Z,3.53
2023-03-01T15:03:32.557Z,10.13
2023-03-01T15:04:58.571Z,2.25
2023-03-01T15:06:24.052Z,8.00
2023-03-01T15:07:49.931Z,6.32
2023-03-01T15:09:17.385Z,2.22
2023-03-01T15:10:44.095Z,4.88
2023-03-01T15:12:36.632Z,4.03
2023-03-01T15:14:03.678Z,2.88
2023-03-01T15:15:36.870Z,5.63
2023-03-01T15:17:00.390Z,4.32
2023-03-01T15:18:25.204Z,8.05
2023-03-01T15:19:50.975Z,4.90
2023-03-01T15:21:19.943Z,6.45
2023-03-01T15:22:49.301Z,6.95
2023-03-01T15:24:21.331Z,4.50
2023-03-01T15:25:47.554Z,6.07
2023-03-01T15:27:17.830Z,5.05
2023-03-01T15:28:45.282Z,2.28
2023-03-01T15:30:21.032Z,2.33
2023-03-01T15:31:44.561Z,5.85
2023-03-01T15:33:22.900Z,2.78
2023-03-01T15:34:46.362Z,5.65
2023-03-01T15:36:32.848Z,5.40
2023-03-01T15:37:56.390Z,4.28
2023-03-01T15:39:43.973Z,4.03
2023-03-01T15:41:24.240Z,9.80
2023-03-01T15:42:48.305Z,2.53
2023-03-01T15:44:19.732Z,4.20
2023-03-01T15:45:44.464Z,3.63
2023-03-01T15:47:24.074Z,2.60
2023-03-01T15:48:50.336Z,3.53
2023-03-01T15:50:20.947Z,3.92
2023-03-01T15:51:44.345Z,4.03
2023-03-01T15:53:09.618Z,7.72
2023-03-01T15:54:33.193Z,2.38
2023-03-01T15:56:00.162Z,4.15
2023-03-01T15:57:23.602Z,9.70
2023-03-01T15:58:47.126Z,4.20
2023-03-01T16:00:14.464Z,4.45
2023-03-01T16:01:40.196Z,5.15
2023-03-01T16:03:03.689Z,10.27
2023-03-01T16:04:27.322Z,4.93
2023-03-01T16:05:51.824Z,9.88
2023-03-01T16:07:18.951Z,3.40
2023-03-01T16:08:43.055Z,5.50
2023-03-01T16:10:07.301Z,4.80
2023-03-01T16:11:29.741Z,4.63
2023-03-01T16:12:53.793Z,2.80
2023-03-01T16:14:17.418Z,13.38
2023-03-01T16:15:41.578Z,4.78
2023-03-01T16:17:06.345Z,4.22
2023-03-01T16:18:31.528Z,7.95
2023-03-01T16:19:55.034Z,4.30
2023-03-01T16:21:22.716Z,5.35
2023-03-01T16:22:47.057Z,8.00
2023-03-01T16:24:10.601Z,9.40
2023-03-01T16:25:34.847Z,4.50
2023-03-01T16:26:58.375Z,4.38
2023-03-01T16:28:21.785Z,3.35
2023-03-01T16:29:45.297Z,5.38
2023-03-01T16:31:09.271Z,5.18
2023-03-01T16:32:34.568Z,5.00
2023-03-01T16:34:00.474Z,4.40
2023-03-01T16:35:24.842Z,6.22
2023-03-01T16:36:49.979Z,4.65
2023-03-01T16:38:14.077Z,3.42
2023-03-01T16:39:39.449Z,5.13
2023-03-01T16:41:02.878Z,2.90
2023-03-01T16:42:26.537Z,6.57
2023-03-01T16:43:50.513Z,6.18
2023-03-01T16:45:23.415Z,3.88
2023-03-01T16:46:50.476Z,3.53
2023-03-01T16:48:15.652Z,8.07
2023-03-01T16:49:39.032Z,10.95
2023-03-01T16:51:02.501Z,6.97
2023-03-01T16:52:26.889Z,9.95
2023-03-01T16:53:52.126Z,13.23
2023-03-01T16:55:14.675Z,4.97
2023-03-01T16:56:39.627Z,7.07
2023-03-01T16:58:03.515Z,6.57
2023-03-01T16:59:26.986Z,5.90
2023-03-01T17:00:49.482Z,6.88
2023-03-01T17:02:14.118Z,7.63
2023-03-01T17:03:40.688Z,10.43
2023-03-01T17:05:04.956Z,6.45
2023-03-01T17:06:28.508Z,7.60
2023-03-01T17:07:50.962Z,9.48
2023-03-01T17:09:14.521Z,8.55
2023-03-01T17:10:37.893Z,8.25
2023-03-01T17:12:01.302Z,7.25
2023-03-01T17:13:26.116Z,7.97
2023-03-01T17:14:50.874Z,6.18
2023-03-01T17:16:17.307Z,9.98
2023-03-01T17:17:39.824Z,7.30
2023-03-01T17:19:04.629Z,8.60
2023-03-01T17:20:28.035Z,4.90
2023-03-01T17:21:51.435Z,9.68
2023-03-01T17:23:14.174Z,6.72
2023-03-01T17:24:37.663Z,14.02
2023-03-01T17:26:02.936Z,5.70
2023-03-01T17:27:26.389Z,5.75
2023-03-01T17:28:51.822Z,9.13
2023-03-01T17:30:16.450Z,5.30
2023-03-01T17:31:40.631Z,9.13
2023-03-01T17:33:04.146Z,12.13
2023-03-01T17:34:33.190Z,9.07
2023-03-01T17:35:56.688Z,8.65
2023-03-01T17:37:20.840Z,7.97
2023-03-01T17:38:44.227Z,8.80
2023-03-01T17:40:08.824Z,14.10
2023-03-01T17:41:32.476Z,9.20
2023-03-01T17:42:57.042Z,7.72
2023-03-01T17:44:20.475Z,15.40
2023-03-01T17:45:47.669Z,6.90
2023-03-01T17:47:12.168Z,11.73
2023-03-01T17:48:44.667Z,13.52
2023-03-01T17:50:09.732Z,21.00
2023-03-01T17:51:33.480Z,19.90
2023-03-01T17:52:57.151Z,10.52
2023-03-01T17:54:21.525Z,24.85
2023-03-01T17:55:45.524Z,18.13
2023-03-01T17:57:08.954Z,11.40
2023-03-01T17:58:32.928Z,14.18
2023-03-01T17:59:56.426Z,19.98
2023-03-01T18:01:21.366Z,17.30
2023-03-01T18:02:44.897Z,11.68
2023-03-01T18:04:08.298Z,12.80
2023-03-01T18:05:38.806Z,11.07
2023-03-01T18:07:02.345Z,16.60
2023-03-01T18:08:25.960Z,16.98
2023-03-01T18:09:49.351Z,11.02
2023-03-01T18:11:14.239Z,8.82
2023-03-01T18:12:38.107Z,18.85
2023-03-01T18:14:01.527Z,13.10
2023-03-01T18:15:25.043Z,10.60
2023-03-01T18:16:48.596Z,13.68
2023-03-01T18:18:12.013Z,9.95
2023-03-01T18:19:35.544Z,16.25
2023-03-01T18:21:00.898Z,18.45
2023-03-01T18:22:24.571Z,16.88
2023-03-01T18:23:47.997Z,18.15
2023-03-01T18:25:11.720Z,13.93
2023-03-01T18:26:35.153Z,18.85
2023-03-01T18:27:58.572Z,17.50
2023-03-01T18:29:20.960Z,16.35
2023-03-01T18:30:44.476Z,12.52
2023-03-01T18:32:08.292Z,15.15
2023-03-01T18:33:35.095Z,17.05
2023-03-01T18:34:58.490Z,15.70
2023-03-01T18:36:24.960Z,22.23
2023-03-01T18:37:49.626Z,19.73
2023-03-01T18:39:14.934Z,16.20
2023-03-01T18:40:38.298Z,17.67
2023-03-01T18:42:02.196Z,13.48
2023-03-01T18:43:28.697Z,11.80
2023-03-01T18:44:53.739Z,20.67
2023-03-01T18:46:17.523Z,13.52
2023-03-01T18:47:40.925Z,14.52
2023-03-01T18:49:04.438Z,17.95
2023-03-01T18:50:27.856Z,13.57
2023-03-01T18:51:52.731Z,26.77